Time;durP1;ratioP1;P1;durP2;ratioP2;P2;SDS_P1;SDS_P2;PMS_P1;PMS_P2;Temp;Humidity;BMP_temperature;BMP_pressure;BME280_temperature;BME280_humidity;BME280_pressure;Samples;Min_cycle;Max_cycle;Signal;HPM_P1;HPM_P2
2022/03/07 00:01:57;;;;;;;6.55;2.22;;;1.20;99.90;;;;;;5063453;28;20032;-77
2022/03/07 00:04:23;;;;;;;7.38;1.70;;;1.10;99.90;;;;;;5069341;28;20052;-77
2022/03/07 00:06:49;;;;;;;4.45;2.28;;;1.20;99.90;;;;;;5069564;28;20045;-77
2022/03/07 00:09:15;;;;;;;5.28;1.80;;;1.10;99.90;;;;;;5069874;28;20551;-76
2022/03/07 00:11:42;;;;;;;15.02;2.65;;;1.20;99.90;;;;;;5062895;28;21338;-77
2022/03/07 00:14:08;;;;;;;10.90;2.35;;;1.20;99.90;;;;;;5071676;28;20044;-77
2022/03/07 00:16:33;;;;;;;4.18;2.22;;;1.30;99.90;;;;;;5067673;28;20090;-77
2022/03/07 00:18:59;;;;;;;3.30;2.08;;;1.30;99.90;;;;;;5062507;28;20455;-77
2022/03/07 00:21:25;;;;;;;3.88;1.52;;;1.20;99.90;;;;;;5061672;28;20116;-77
2022/03/07 00:23:51;;;;;;;3.03;1.92;;;1.00;99.90;;;;;;5068741;28;20049;-77
2022/03/07 00:26:18;;;;;;;4.97;1.30;;;0.90;99.90;;;;;;5069635;28;20086;-76
2022/03/07 00:28:44;;;;;;;4.30;1.70;;;0.90;99.90;;;;;;5060609;28;20080;-76
2022/03/07 00:31:10;;;;;;;3.55;1.50;;;0.80;99.90;;;;;;5056487;28;20036;-76
2022/03/07 00:33:36;;;;;;;3.92;1.15;;;0.70;99.90;;;;;;5059647;28;20052;-77
2022/03/07 00:36:03;;;;;;;5.13;1.70;;;0.70;99.90;;;;;;5069030;28;20043;-77
2022/03/07 00:38:28;;;;;;;6.65;1.60;;;0.70;99.90;;;;;;5053760;28;20049;-76
2022/03/07 00:40:54;;;;;;;5.93;1.75;;;0.70;99.90;;;;;;5052752;28;20049;-76
2022/03/07 00:43:21;;;;;;;13.20;5.18;;;0.80;99.90;;;;;;5057384;28;20044;-76
2022/03/07 00:45:47;;;;;;;7.93;1.77;;;0.80;99.90;;;;;;5069082;28;20088;-76
2022/03/07 00:48:13;;;;;;;4.03;1.70;;;0.60;99.90;;;;;;5065185;28;20048;-76
2022/03/07 00:50:42;;;;;;;7.22;2.00;;;0.40;99.90;;;;;;5068310;28;20093;-78
2022/03/07 00:53:09;;;;;;;5.72;2.42;;;0.40;99.90;;;;;;5066725;28;20040;-76
2022/03/07 00:55:34;;;;;;;4.57;2.20;;;0.50;99.90;;;;;;5063332;28;20466;-76
2022/03/07 00:58:00;;;;;;;5.47;1.33;;;0.60;99.90;;;;;;5068225;28;20037;-78
2022/03/07 01:00:25;;;;;;;4.93;1.67;;;0.50;99.90;;;;;;5056636;28;20091;-77
2022/03/07 01:02:51;;;;;;;6.55;2.30;;;0.60;99.90;;;;;;5062362;28;20094;-76
2022/03/07 01:05:19;;;;;;;9.88;2.33;;;0.50;99.90;;;;;;5071418;28;20068;-77
2022/03/07 01:07:44;;;;;;;6.38;2.03;;;0.50;99.90;;;;;;5065648;28;20437;-76
2022/03/07 01:10:10;;;;;;;7.63;1.88;;;0.50;99.90;;;;;;5070296;28;20051;-77
2022/03/07 01:12:36;;;;;;;9.30;2.60;;;0.50;99.90;;;;;;5060555;28;20052;-77
2022/03/07 01:15:02;;;;;;;7.13;1.60;;;0.50;99.90;;;;;;5054414;28;20045;-76
2022/03/07 01:17:27;;;;;;;8.18;2.58;;;0.30;99.90;;;;;;5061731;28;20048;-76
2022/03/07 01:19:53;;;;;;;8.63;1.80;;;0.30;99.90;;;;;;5069745;28;20040;-77
2022/03/07 01:22:19;;;;;;;6.80;2.10;;;0.40;99.90;;;;;;5065682;28;20514;-76
2022/03/07 01:24:44;;;;;;;6.70;2.35;;;0.40;99.90;;;;;;5061320;28;20056;-77
2022/03/07 01:27:10;;;;;;;7.00;3.70;;;0.40;99.90;;;;;;5063109;28;20060;-77
2022/03/07 01:29:35;;;;;;;5.43;2.20;;;0.30;99.90;;;;;;5054258;28;20044;-78
2022/03/07 01:32:01;;;;;;;5.13;1.67;;;0.30;99.90;;;;;;5056601;28;20040;-77
2022/03/07 01:34:26;;;;;;;6.40;2.03;;;0.20;99.90;;;;;;5058800;28;20057;-74
2022/03/07 01:36:52;;;;;;;5.97;1.85;;;0.20;99.90;;;;;;5054007;28;20434;-77
2022/03/07 01:39:18;;;;;;;10.68;4.43;;;0.20;99.90;;;;;;5069579;28;20043;-77
2022/03/07 01:41:43;;;;;;;7.65;2.78;;;0.10;99.90;;;;;;5068634;28;20113;-77
2022/03/07 01:44:20;;;;;;;5.95;2.05;;;0.10;99.90;;;;;;5051746;28;20406;-77
2022/03/07 01:46:46;;;;;;;8.48;2.25;;;0.00;99.90;;;;;;5062753;28;20056;-76
2022/03/07 01:49:12;;;;;;;7.22;2.33;;;0.10;99.90;;;;;;5064853;28;20052;-76
2022/03/07 01:51:41;;;;;;;5.53;1.83;;;0.10;99.90;;;;;;5063367;28;20063;-76
2022/03/07 01:54:09;;;;;;;4.40;1.75;;;0.00;99.90;;;;;;5066949;28;20079;-77
2022/03/07 01:56:35;;;;;;;12.65;4.88;;;0.10;99.90;;;;;;5063785;28;20032;-79
2022/03/07 01:59:03;;;;;;;5.78;2.40;;;0.00;99.90;;;;;;5063179;28;20055;-77
2022/03/07 02:01:29;;;;;;;6.70;4.18;;;0.10;99.90;;;;;;5058982;28;20041;-76
2022/03/07 02:03:54;;;;;;;8.02;3.53;;;0.00;99.90;;;;;;5059036;28;20480;-76
2022/03/07 02:06:21;;;;;;;6.97;2.10;;;0.10;99.90;;;;;;5069389;28;20455;-76
2022/03/07 02:08:48;;;;;;;7.20;3.35;;;-0.10;99.90;;;;;;5066551;28;20052;-76
2022/03/07 02:11:15;;;;;;;7.68;2.42;;;-0.10;99.90;;;;;;5067760;28;20045;-77
2022/03/07 02:13:41;;;;;;;4.25;3.03;;;0.00;99.90;;;;;;5055057;28;20062;-75
2022/03/07 02:16:06;;;;;;;6.32;2.08;;;0.00;99.90;;;;;;5068420;28;20041;-76
2022/03/07 02:18:33;;;;;;;9.80;2.58;;;-0.10;99.90;;;;;;5060355;28;20029;-75
2022/03/07 02:21:06;;;;;;;5.13;1.92;;;-0.20;99.90;;;;;;5063979;28;20041;-76
2022/03/07 02:23:32;;;;;;;7.85;3.08;;;-0.10;99.90;;;;;;5061936;28;20102;-76
2022/03/07 02:25:57;;;;;;;4.68;2.13;;;-0.10;99.90;;;;;;5067700;28;20502;-76
2022/03/07 02:28:23;;;;;;;4.03;2.65;;;-0.20;99.90;;;;;;5062080;28;20037;-76
2022/03/07 02:30:51;;;;;;;4.72;2.55;;;-0.20;99.90;;;;;;5054705;28;20051;-76
2022/03/07 02:33:17;;;;;;;6.68;1.95;;;-0.30;99.90;;;;;;5060895;28;20071;-75
2022/03/07 02:35:43;;;;;;;11.20;3.17;;;-0.20;99.90;;;;;;5069267;28;20479;-76
2022/03/07 02:38:13;;;;;;;5.43;2.78;;;-0.20;99.90;;;;;;5063615;28;20467;-75
2022/03/07 02:40:40;;;;;;;3.97;2.30;;;-0.20;99.90;;;;;;5056121;28;20502;-76
2022/03/07 02:43:06;;;;;;;6.28;1.77;;;-0.30;99.90;;;;;;5066718;28;20051;-76
2022/03/07 02:45:31;;;;;;;7.28;2.92;;;-0.30;99.90;;;;;;5070998;28;20128;-75
2022/03/07 02:47:57;;;;;;;3.10;1.58;;;-0.30;99.90;;;;;;5069202;28;20099;-76
2022/03/07 02:50:23;;;;;;;11.07;2.97;;;-0.40;99.90;;;;;;5067055;28;20041;-76
2022/03/07 02:52:48;;;;;;;6.13;2.20;;;-0.50;99.90;;;;;;5061107;28;20048;-77
2022/03/07 02:55:14;;;;;;;7.05;2.28;;;-0.60;99.90;;;;;;5059564;28;20115;-76
2022/03/07 02:57:40;;;;;;;6.80;2.33;;;-0.60;99.90;;;;;;5067756;28;20055;-76
2022/03/07 03:00:06;;;;;;;7.20;2.92;;;-0.50;99.90;;;;;;5071162;28;20048;-76
2022/03/07 03:02:31;;;;;;;8.07;2.92;;;-0.60;99.90;;;;;;5062369;28;20052;-78
2022/03/07 03:04:57;;;;;;;6.30;3.47;;;-0.60;99.90;;;;;;5067576;28;20040;-77
2022/03/07 03:07:23;;;;;;;7.60;1.80;;;-0.60;99.90;;;;;;5067850;28;20045;-76
2022/03/07 03:09:48;;;;;;;17.90;3.88;;;-0.60;99.90;;;;;;5065226;28;20074;-76
2022/03/07 03:12:14;;;;;;;4.82;2.13;;;-0.70;99.90;;;;;;5064333;28;20554;-76
2022/03/07 03:14:40;;;;;;;9.85;3.17;;;-0.60;99.90;;;;;;5051911;28;20049;-76
2022/03/07 03:17:06;;;;;;;5.93;2.28;;;-0.60;99.90;;;;;;5060123;28;20099;-76
2022/03/07 03:19:32;;;;;;;5.60;2.13;;;-0.60;99.90;;;;;;5067311;28;20092;-76
2022/03/07 03:21:57;;;;;;;15.18;2.38;;;-0.60;99.90;;;;;;5066799;28;20064;-77
2022/03/07 03:24:23;;;;;;;9.80;3.28;;;-0.70;99.90;;;;;;5070948;28;20037;-77
2022/03/07 03:26:48;;;;;;;10.50;3.38;;;-0.60;99.90;;;;;;5063876;28;20036;-75
2022/03/07 03:29:14;;;;;;;7.60;3.97;;;-0.50;99.90;;;;;;5060698;28;20064;-76
2022/03/07 03:31:39;;;;;;;10.63;4.40;;;-0.50;99.90;;;;;;5056670;28;20045;-76
2022/03/07 03:34:05;;;;;;;7.50;2.85;;;-0.60;99.90;;;;;;5064669;28;20474;-75
2022/03/07 03:36:31;;;;;;;27.25;4.55;;;-0.70;99.90;;;;;;5066322;28;20178;-75
2022/03/07 03:38:57;;;;;;;5.40;3.53;;;-0.70;99.90;;;;;;5070181;28;20067;-76
2022/03/07 03:41:22;;;;;;;9.52;3.72;;;-0.70;99.90;;;;;;5067904;28;20426;-76
2022/03/07 03:43:48;;;;;;;8.25;2.95;;;-0.70;99.90;;;;;;5071583;28;20044;-77
2022/03/07 03:46:13;;;;;;;6.28;3.67;;;-0.70;99.90;;;;;;5067407;28;20064;-76
2022/03/07 03:48:39;;;;;;;6.15;2.65;;;-0.80;99.90;;;;;;5071307;28;20048;-76
2022/03/07 03:51:04;;;;;;;8.10;2.25;;;-0.80;99.90;;;;;;5066499;28;20845;-76
2022/03/07 03:53:30;;;;;;;4.63;2.40;;;-0.80;99.90;;;;;;5067997;28;20040;-78
2022/03/07 03:55:55;;;;;;;3.97;2.22;;;-0.80;99.90;;;;;;5069189;28;20175;-76
2022/03/07 03:58:21;;;;;;;5.18;2.15;;;-0.80;99.90;;;;;;5067053;28;20045;-76
2022/03/07 04:00:47;;;;;;;5.55;3.15;;;-0.80;99.90;;;;;;5068325;28;20544;-77
2022/03/07 04:03:12;;;;;;;6.45;3.13;;;-0.80;99.90;;;;;;5062503;28;20398;-79
2022/03/07 04:05:38;;;;;;;3.20;2.38;;;-0.90;99.90;;;;;;5072237;28;20032;-78
2022/03/07 04:08:04;;;;;;;6.28;3.03;;;-0.80;99.90;;;;;;5059688;28;20491;-78
2022/03/07 04:10:29;;;;;;;7.38;3.50;;;-0.90;99.90;;;;;;5063752;28;20044;-78
2022/03/07 04:12:55;;;;;;;6.07;3.20;;;-0.80;99.90;;;;;;5062243;28;20041;-78
2022/03/07 04:15:20;;;;;;;7.07;2.53;;;-0.90;99.90;;;;;;5068333;28;20047;-78
2022/03/07 04:17:46;;;;;;;5.38;3.03;;;-1.00;99.90;;;;;;5067305;28;20562;-79
2022/03/07 04:20:13;;;;;;;3.85;2.28;;;-0.90;99.90;;;;;;5071563;28;20032;-76
2022/03/07 04:22:39;;;;;;;5.88;1.92;;;-1.00;99.90;;;;;;5069494;28;20044;-76
2022/03/07 04:25:06;;;;;;;11.32;3.08;;;-0.90;99.90;;;;;;5067508;28;20181;-76
2022/03/07 04:27:32;;;;;;;2.85;2.30;;;-1.00;99.90;;;;;;5060288;28;20043;-76
2022/03/07 04:29:57;;;;;;;4.18;2.80;;;-1.20;99.90;;;;;;5055877;28;20135;-76
2022/03/07 04:32:23;;;;;;;8.75;3.13;;;-1.10;99.90;;;;;;5064060;28;20039;-78
2022/03/07 04:34:49;;;;;;;4.90;3.60;;;-1.20;99.90;;;;;;5069817;28;20094;-77
2022/03/07 04:37:14;;;;;;;9.20;3.55;;;-1.10;99.90;;;;;;5064583;28;20064;-76
2022/03/07 04:39:40;;;;;;;4.13;2.78;;;-1.30;99.90;;;;;;5069573;28;20055;-77
2022/03/07 04:42:06;;;;;;;7.32;3.53;;;-1.20;99.90;;;;;;5068022;28;20149;-76
2022/03/07 04:44:32;;;;;;;8.05;2.53;;;-1.10;99.90;;;;;;5068918;28;20085;-76
2022/03/07 04:46:57;;;;;;;4.68;2.30;;;-1.20;99.90;;;;;;5064180;28;20052;-75
2022/03/07 04:49:23;;;;;;;4.60;2.33;;;-1.20;99.90;;;;;;5058092;28;20048;-76
2022/03/07 04:51:48;;;;;;;8.35;3.05;;;-1.20;99.90;;;;;;5057934;28;20098;-79
2022/03/07 04:54:15;;;;;;;9.90;3.25;;;-1.20;99.90;;;;;;5068625;28;20068;-78
2022/03/07 04:56:47;;;;;;;7.75;3.42;;;-1.10;99.90;;;;;;5067644;28;20045;-76
2022/03/07 04:59:13;;;;;;;8.02;3.65;;;-1.10;99.90;;;;;;5067647;28;20052;-77
2022/03/07 05:01:39;;;;;;;10.20;2.85;;;-1.10;99.90;;;;;;5067027;28;20454;-78
2022/03/07 05:04:05;;;;;;;24.05;5.68;;;-1.10;99.90;;;;;;5063890;28;20072;-79
2022/03/07 05:06:30;;;;;;;3.80;2.92;;;-1.10;99.90;;;;;;5065145;28;20483;-78
2022/03/07 05:08:56;;;;;;;7.60;3.30;;;-1.10;99.90;;;;;;5066508;28;20039;-78
2022/03/07 05:11:22;;;;;;;3.70;2.67;;;-1.10;99.90;;;;;;5066589;28;20037;-76
2022/03/07 05:13:47;;;;;;;5.57;3.85;;;-1.20;99.90;;;;;;5063153;28;20036;-77
2022/03/07 05:16:13;;;;;;;6.13;3.90;;;-1.20;99.90;;;;;;5068179;28;20114;-76
2022/03/07 05:18:39;;;;;;;8.18;4.03;;;-1.20;99.90;;;;;;5065274;28;20045;-76
2022/03/07 05:21:04;;;;;;;5.55;2.95;;;-1.20;99.90;;;;;;5066085;28;20041;-76
2022/03/07 05:23:30;;;;;;;5.95;3.38;;;-1.20;99.90;;;;;;5054109;28;20040;-76
2022/03/07 05:25:55;;;;;;;11.25;4.00;;;-1.20;99.90;;;;;;5061740;28;20041;-76
2022/03/07 05:28:21;;;;;;;22.13;3.83;;;-1.20;99.90;;;;;;5054395;28;20045;-75
2022/03/07 05:30:47;;;;;;;9.63;3.53;;;-1.30;99.90;;;;;;5063885;28;20059;-75
2022/03/07 05:33:12;;;;;;;10.75;4.03;;;-1.20;99.90;;;;;;5058070;28;20406;-75
2022/03/07 05:35:38;;;;;;;8.57;3.08;;;-1.30;99.90;;;;;;5066502;28;20127;-76
2022/03/07 05:38:04;;;;;;;9.85;4.80;;;-1.30;99.90;;;;;;5069688;28;20052;-77
2022/03/07 05:40:30;;;;;;;7.75;2.72;;;-1.40;99.90;;;;;;5067627;28;20051;-76
2022/03/07 05:42:55;;;;;;;7.30;3.78;;;-1.40;99.90;;;;;;5067087;28;20123;-74
2022/03/07 05:45:21;;;;;;;7.88;4.07;;;-1.40;99.90;;;;;;5067957;28;20044;-76
2022/03/07 05:47:46;;;;;;;8.18;4.03;;;-1.40;99.90;;;;;;5067918;28;20118;-76
2022/03/07 05:50:13;;;;;;;8.35;3.42;;;-1.40;99.90;;;;;;5061786;28;20121;-77
2022/03/07 05:52:38;;;;;;;14.52;4.80;;;-1.40;99.90;;;;;;5062032;28;20047;-75
2022/03/07 05:55:06;;;;;;;6.82;3.80;;;-1.40;99.90;;;;;;5064718;28;20060;-76
2022/03/07 05:57:32;;;;;;;8.35;3.53;;;-1.40;99.90;;;;;;5068958;28;20039;-76
2022/03/07 05:59:57;;;;;;;6.68;2.88;;;-1.40;99.90;;;;;;5068837;28;20131;-75
2022/03/07 06:02:23;;;;;;;8.48;3.63;;;-1.50;99.90;;;;;;5044649;28;20127;-77
2022/03/07 06:04:48;;;;;;;4.95;2.80;;;-1.40;99.90;;;;;;5066767;28;20036;-77
2022/03/07 06:07:14;;;;;;;5.95;3.70;;;-1.40;99.90;;;;;;5060048;28;20048;-76
2022/03/07 06:09:40;;;;;;;6.85;3.47;;;-1.30;99.90;;;;;;5063507;28;20628;-76
2022/03/07 06:12:06;;;;;;;8.48;2.85;;;-1.40;99.90;;;;;;5064451;28;20087;-77
2022/03/07 06:14:31;;;;;;;9.32;3.55;;;-1.40;99.90;;;;;;5063990;28;20032;-76
2022/03/07 06:16:57;;;;;;;9.13;3.85;;;-1.40;99.90;;;;;;5064819;28;20559;-76
2022/03/07 06:19:23;;;;;;;7.03;3.03;;;-1.40;99.90;;;;;;5068052;28;20041;-75
2022/03/07 06:21:48;;;;;;;8.55;3.15;;;-1.40;99.90;;;;;;5057563;28;20407;-75
2022/03/07 06:24:14;;;;;;;9.82;3.65;;;-1.40;99.90;;;;;;5060468;28;20076;-75
2022/03/07 06:26:39;;;;;;;5.35;3.25;;;-1.40;99.90;;;;;;5057827;28;20506;-79
2022/03/07 06:29:06;;;;;;;7.82;3.92;;;-1.40;99.90;;;;;;5066924;28;20521;-74
2022/03/07 06:31:32;;;;;;;15.10;5.90;;;-1.30;99.90;;;;;;5058391;28;20135;-74
2022/03/07 06:33:57;;;;;;;8.32;4.13;;;-1.30;99.90;;;;;;5067686;28;20045;-74
2022/03/07 06:36:23;;;;;;;9.45;6.15;;;-1.30;99.90;;;;;;5056104;28;20479;-74
2022/03/07 06:38:49;;;;;;;5.15;4.47;;;-1.30;99.90;;;;;;5069047;28;20041;-74
2022/03/07 06:41:14;;;;;;;5.85;3.95;;;-1.30;99.90;;;;;;5065446;28;20589;-74
2022/03/07 06:43:40;;;;;;;5.40;3.20;;;-1.20;99.90;;;;;;5069436;28;20033;-75
2022/03/07 06:46:06;;;;;;;12.55;4.10;;;-1.20;99.90;;;;;;5062495;28;20566;-75
2022/03/07 06:48:33;;;;;;;6.53;3.30;;;-1.20;99.90;;;;;;5068567;28;20048;-74
2022/03/07 06:50:58;;;;;;;6.95;3.30;;;-1.20;99.90;;;;;;5060840;28;20056;-74
2022/03/07 06:53:24;;;;;;;8.98;4.30;;;-1.20;99.90;;;;;;5068375;28;20043;-76
2022/03/07 06:55:51;;;;;;;16.25;4.70;;;-1.00;99.90;;;;;;5062198;28;20151;-75
2022/03/07 06:58:17;;;;;;;7.07;3.58;;;-1.00;99.90;;;;;;5069631;28;20054;-75
2022/03/07 07:00:43;;;;;;;10.65;4.25;;;-1.00;99.90;;;;;;5066762;28;20032;-74
2022/03/07 07:03:09;;;;;;;5.75;3.58;;;-1.00;99.90;;;;;;5051055;28;20499;-76
2022/03/07 07:05:34;;;;;;;11.95;3.58;;;-0.90;99.90;;;;;;5071307;28;20033;-75
2022/03/07 07:08:00;;;;;;;7.55;3.88;;;-0.80;99.90;;;;;;5071167;28;20040;-75
2022/03/07 07:10:26;;;;;;;7.00;3.13;;;-0.70;99.90;;;;;;5068297;28;20123;-73
2022/03/07 07:12:52;;;;;;;4.95;3.00;;;-0.70;99.90;;;;;;5070547;28;20105;-77
2022/03/07 07:15:18;;;;;;;7.57;3.83;;;-0.60;99.90;;;;;;5069726;28;20069;-74
2022/03/07 07:17:44;;;;;;;9.82;4.07;;;-0.60;99.90;;;;;;5064857;28;20068;-74
2022/03/07 07:20:11;;;;;;;6.35;2.85;;;-0.50;99.90;;;;;;5070783;28;20082;-75
2022/03/07 07:22:38;;;;;;;6.32;3.45;;;-0.40;99.90;;;;;;5073540;28;20086;-74
2022/03/07 07:25:05;;;;;;;12.68;5.50;;;-0.30;99.90;;;;;;5075494;28;20408;-76
2022/03/07 07:27:31;;;;;;;8.25;4.00;;;-0.30;99.90;;;;;;5072982;28;20044;-75
2022/03/07 07:29:57;;;;;;;6.43;3.60;;;-0.20;99.90;;;;;;5069373;28;20037;-76
2022/03/07 07:32:23;;;;;;;6.35;3.63;;;-0.10;99.90;;;;;;5073036;28;20496;-75
2022/03/07 07:34:48;;;;;;;12.07;4.15;;;0.10;99.90;;;;;;5066578;28;20041;-74
2022/03/07 07:37:14;;;;;;;8.52;4.10;;;0.20;99.90;;;;;;5066131;28;20041;-74
2022/03/07 07:39:40;;;;;;;18.17;7.88;;;0.30;99.90;;;;;;5057641;28;20040;-75
2022/03/07 07:42:06;;;;;;;8.02;4.82;;;0.40;99.90;;;;;;5071069;28;20036;-75
2022/03/07 07:44:31;;;;;;;9.88;4.18;;;0.50;99.90;;;;;;5072822;28;20045;-77
2022/03/07 07:46:57;;;;;;;6.82;4.28;;;0.70;99.90;;;;;;5069177;28;20049;-75
2022/03/07 07:49:24;;;;;;;6.90;3.80;;;0.70;99.90;;;;;;5059988;28;20060;-76
2022/03/07 07:51:51;;;;;;;13.43;4.68;;;0.70;99.90;;;;;;5061181;28;20083;-76
2022/03/07 07:54:17;;;;;;;6.05;3.80;;;0.90;99.90;;;;;;5064884;28;20080;-75
2022/03/07 07:56:42;;;;;;;7.68;4.63;;;1.00;99.90;;;;;;5072562;28;20080;-76
2022/03/07 07:59:10;;;;;;;8.63;4.65;;;1.10;99.90;;;;;;5071870;28;20041;-76
2022/03/07 08:01:36;;;;;;;10.00;4.53;;;1.20;99.90;;;;;;5060020;28;20033;-75
2022/03/07 08:04:01;;;;;;;10.30;5.57;;;1.30;99.90;;;;;;5071939;28;20525;-74
2022/03/07 08:06:27;;;;;;;13.43;5.88;;;1.40;99.90;;;;;;5069746;28;20028;-74
2022/03/07 08:08:52;;;;;;;6.78;4.93;;;1.50;99.90;;;;;;5067252;28;20512;-75
2022/03/07 08:11:18;;;;;;;10.57;6.25;;;1.50;99.90;;;;;;5070538;28;20089;-74
2022/03/07 08:13:44;;;;;;;12.18;7.10;;;1.70;99.90;;;;;;5070915;28;20071;-76
2022/03/07 08:16:09;;;;;;;12.90;8.55;;;1.90;99.90;;;;;;5071119;28;20091;-74
2022/03/07 08:18:35;;;;;;;15.93;9.15;;;2.10;99.90;;;;;;5068998;28;20040;-76
2022/03/07 08:21:00;;;;;;;13.68;8.52;;;2.20;99.90;;;;;;5069177;28;20040;-76
2022/03/07 08:23:27;;;;;;;13.98;7.55;;;2.30;99.90;;;;;;5072092;28;20036;-77
2022/03/07 08:25:53;;;;;;;14.65;8.60;;;2.40;99.90;;;;;;5072293;28;20036;-81
2022/03/07 08:28:19;;;;;;;14.07;8.27;;;2.60;99.90;;;;;;5062156;28;20044;-78
2022/03/07 08:30:44;;;;;;;17.05;9.15;;;2.60;99.90;;;;;;5065921;28;20056;-79
2022/03/07 08:33:10;;;;;;;19.48;9.10;;;2.80;99.90;;;;;;5071684;28;20040;-80
2022/03/07 08:35:36;;;;;;;11.40;8.25;;;2.90;99.90;;;;;;5072621;28;20041;-76
2022/03/07 08:38:01;;;;;;;18.60;9.23;;;2.90;99.90;;;;;;5058475;28;20064;-79
2022/03/07 08:40:27;;;;;;;16.63;9.63;;;3.00;99.90;;;;;;5070090;28;20351;-78
2022/03/07 08:42:53;;;;;;;16.70;9.80;;;3.10;99.90;;;;;;5071137;28;20047;-77
2022/03/07 08:45:21;;;;;;;19.25;11.52;;;3.10;99.90;;;;;;5069745;28;20086;-79
2022/03/07 08:47:46;;;;;;;19.60;10.95;;;3.30;99.90;;;;;;5053450;28;20072;-75
2022/03/07 08:50:12;;;;;;;21.67;12.60;;;3.30;99.90;;;;;;5063766;28;20549;-77
2022/03/07 08:52:38;;;;;;;11.38;9.48;;;3.50;99.90;;;;;;5051083;28;20051;-78
2022/03/07 08:55:05;;;;;;;15.10;9.10;;;3.60;99.90;;;;;;5058886;28;20041;-76
2022/03/07 08:57:31;;;;;;;18.80;11.30;;;3.60;99.90;;;;;;5056638;28;20364;-78
2022/03/07 08:59:56;;;;;;;19.15;11.02;;;3.80;99.90;;;;;;5069068;28;20054;-75
2022/03/07 09:02:22;;;;;;;16.50;9.40;;;3.90;99.90;;;;;;5069945;28;20044;-77
2022/03/07 09:04:48;;;;;;;11.50;9.55;;;3.90;99.90;;;;;;5070058;28;20033;-78
2022/03/07 09:07:13;;;;;;;14.93;10.20;;;4.00;99.90;;;;;;5065103;28;20032;-78
2022/03/07 09:09:39;;;;;;;14.82;7.93;;;4.00;99.90;;;;;;5067747;28;20106;-78
2022/03/07 09:12:07;;;;;;;15.45;7.40;;;4.20;99.90;;;;;;5069883;28;20083;-78
2022/03/07 09:14:34;;;;;;;14.45;8.30;;;4.30;99.90;;;;;;5070248;28;20049;-78
2022/03/07 09:16:59;;;;;;;9.88;6.00;;;4.30;99.90;;;;;;5061604;28;20490;-77
2022/03/07 09:19:25;;;;;;;8.50;3.88;;;4.30;99.90;;;;;;5051804;28;20059;-77
2022/03/07 09:21:51;;;;;;;4.68;1.40;;;4.30;99.90;;;;;;5067505;28;20040;-76
2022/03/07 09:24:17;;;;;;;12.88;6.57;;;4.30;99.90;;;;;;5070820;28;20131;-78
2022/03/07 09:26:43;;;;;;;14.18;6.18;;;4.50;99.90;;;;;;5069858;28;20487;-80
2022/03/07 09:29:10;;;;;;;14.27;7.35;;;4.60;99.90;;;;;;5069690;28;20135;-77
2022/03/07 09:31:36;;;;;;;6.55;3.65;;;4.60;99.90;;;;;;5052538;28;20056;-77
2022/03/07 09:34:02;;;;;;;4.63;3.20;;;4.70;99.90;;;;;;5057077;28;20060;-77
2022/03/07 09:36:28;;;;;;;7.95;4.95;;;4.70;99.90;;;;;;5063787;28;20045;-78
2022/03/07 09:38:54;;;;;;;12.50;5.07;;;4.80;99.90;;;;;;5058174;28;20037;-78
2022/03/07 09:41:20;;;;;;;13.10;5.80;;;4.80;99.90;;;;;;5059536;28;20037;-77
2022/03/07 09:43:47;;;;;;;8.10;5.43;;;4.90;99.90;;;;;;5064900;28;20044;-78
2022/03/07 09:46:14;;;;;;;11.38;4.95;;;5.00;99.90;;;;;;5061159;28;20094;-76
2022/03/07 09:48:42;;;;;;;8.30;4.95;;;5.00;99.90;;;;;;5062040;28;20414;-78
2022/03/07 09:51:08;;;;;;;12.15;5.18;;;5.00;99.90;;;;;;5069413;28;20045;-78
2022/03/07 09:53:34;;;;;;;12.18;5.88;;;5.20;99.90;;;;;;5068021;28;20028;-78
2022/03/07 09:55:59;;;;;;;8.25;4.30;;;5.30;99.90;;;;;;5062706;28;20142;-77
2022/03/07 09:58:25;;;;;;;13.38;4.78;;;5.30;99.90;;;;;;5068663;28;20073;-75
2022/03/07 10:00:51;;;;;;;11.98;2.85;;;5.20;99.90;;;;;;5067476;28;20056;-81
2022/03/07 10:03:20;;;;;;;15.07;3.95;;;5.30;99.90;;;;;;5068380;28;20040;-80
2022/03/07 10:05:47;;;;;;;4.95;2.80;;;5.40;99.90;;;;;;5055279;28;20044;-78
2022/03/07 10:08:27;;;;;;;10.93;3.17;;;5.30;99.90;;;;;;5056012;28;20521;-76
2022/03/07 10:10:55;;;;;;;15.07;3.05;;;5.40;99.90;;;;;;5070751;28;20043;-77
2022/03/07 10:13:21;;;;;;;7.95;3.08;;;5.40;99.90;;;;;;5069435;28;20047;-77
2022/03/07 10:15:58;;;;;;;8.15;3.13;;;5.60;99.90;;;;;;5067690;28;20403;-75
2022/03/07 10:18:24;;;;;;;3.25;2.25;;;5.70;99.90;;;;;;5069702;28;20037;-77
2022/03/07 10:21:01;;;;;;;2.97;2.13;;;5.70;99.90;;;;;;5081486;28;20055;-76
2022/03/07 10:23:30;;;;;;;9.98;2.63;;;5.80;99.90;;;;;;5052454;28;20040;-75
2022/03/07 10:26:07;;;;;;;6.22;2.65;;;5.80;99.90;;;;;;5062138;28;20041;-73
2022/03/07 10:28:37;;;;;;;10.45;2.92;;;5.90;99.90;;;;;;5060305;28;20047;-75
2022/03/07 10:31:16;;;;;;;6.47;2.28;;;6.20;99.90;;;;;;5067263;28;20052;-74
2022/03/07 10:33:42;;;;;;;3.95;2.33;;;6.20;99.90;;;;;;5081176;28;20041;-74
2022/03/07 10:36:07;;;;;;;8.35;3.15;;;6.10;99.90;;;;;;5059061;28;20037;-75
2022/03/07 10:38:33;;;;;;;3.88;2.30;;;6.30;99.90;;;;;;5069267;28;20093;-75
2022/03/07 10:40:59;;;;;;;7.15;2.58;;;6.40;99.90;;;;;;5063994;28;20040;-75
2022/03/07 10:43:24;;;;;;;7.38;2.78;;;6.50;99.90;;;;;;5064470;28;20060;-76
2022/03/07 10:45:53;;;;;;;3.88;2.38;;;6.50;99.90;;;;;;5055637;28;20064;-73
2022/03/07 10:48:20;;;;;;;10.43;3.92;;;6.60;99.90;;;;;;5065571;28;20542;-75
2022/03/07 10:50:54;;;;;;;7.60;3.85;;;6.40;99.90;;;;;;5071974;28;20048;-76
2022/03/07 10:53:20;;;;;;;3.38;2.40;;;6.50;99.90;;;;;;5066529;28;20063;-75
2022/03/07 10:55:53;;;;;;;5.00;2.60;;;6.40;99.90;;;;;;5072830;28;20136;-76
2022/03/07 10:58:20;;;;;;;7.80;2.75;;;6.50;99.90;;;;;;5071574;28;20052;-76
2022/03/07 11:00:54;;;;;;;4.82;2.63;;;6.40;99.90;;;;;;5067572;28;20052;-75
2022/03/07 11:03:29;;;;;;;9.00;3.75;;;6.50;99.90;;;;;;5062919;28;20127;-74
2022/03/07 11:05:56;;;;;;;11.45;3.90;;;7.00;99.90;;;;;;5058348;28;20143;-76
2022/03/07 11:08:23;;;;;;;4.30;2.25;;;7.20;99.90;;;;;;5073465;28;20126;-75
2022/03/07 11:10:54;;;;;;;4.10;1.98;;;7.40;99.90;;;;;;5072571;28;20052;-74
2022/03/07 11:13:25;;;;;;;3.30;1.90;;;7.30;99.90;;;;;;5060716;28;20044;-76
2022/03/07 11:15:52;;;;;;;3.22;1.88;;;7.40;99.90;;;;;;5069238;28;20043;-77
2022/03/07 11:18:19;;;;;;;3.47;1.92;;;7.70;99.90;;;;;;5069574;28;20040;-76
2022/03/07 11:20:47;;;;;;;5.85;2.08;;;7.40;99.90;;;;;;5066699;28;20067;-76
2022/03/07 11:23:18;;;;;;;4.28;2.38;;;7.20;99.90;;;;;;5063017;28;20044;-76
2022/03/07 11:25:45;;;;;;;9.18;3.95;;;7.20;99.90;;;;;;5072048;28;20041;-76
2022/03/07 11:28:12;;;;;;;5.65;2.20;;;7.20;99.90;;;;;;5071576;28;20521;-77
2022/03/07 11:30:42;;;;;;;3.05;1.88;;;7.60;99.90;;;;;;5069447;28;20125;-78
2022/03/07 11:33:15;;;;;;;11.02;2.20;;;7.20;99.90;;;;;;5064378;28;20040;-76
2022/03/07 11:35:50;;;;;;;7.03;4.03;;;7.50;99.90;;;;;;5070920;28;20047;-76
2022/03/07 11:38:17;;;;;;;3.30;1.42;;;7.10;99.90;;;;;;5067009;28;20451;-77
2022/03/07 11:41:06;;;;;;;3.40;1.90;;;7.20;99.90;;;;;;5072022;28;20182;-76
2022/03/07 11:43:46;;;;;;;5.95;1.88;;;7.40;99.90;;;;;;5040895;28;20052;-76
2022/03/07 11:46:27;;;;;;;1.75;1.35;;;7.70;99.90;;;;;;5069355;28;20052;-76
2022/03/07 11:48:53;;;;;;;4.63;1.20;;;7.30;99.90;;;;;;5060772;28;20138;-78
2022/03/07 11:51:23;;;;;;;4.70;1.38;;;7.20;99.90;;;;;;5057862;28;20033;-76
2022/03/07 11:53:50;;;;;;;2.03;1.27;;;7.20;99.90;;;;;;5058713;28;20049;-76
2022/03/07 11:56:37;;;;;;;3.70;2.05;;;7.00;99.90;;;;;;5072347;28;20127;-76
2022/03/07 11:59:05;;;;;;;3.97;1.33;;;6.70;99.90;;;;;;5057450;28;20036;-77
2022/03/07 12:01:32;;;;;;;7.60;2.63;;;6.60;99.90;;;;;;5050229;28;20041;-78
2022/03/07 12:04:14;;;;;;;2.95;1.35;;;6.70;99.90;;;;;;5070300;28;20045;-76
2022/03/07 12:06:48;;;;;;;4.22;1.27;;;6.60;99.90;;;;;;5060014;28;20056;-76
2022/03/07 12:09:23;;;;;;;3.78;1.65;;;6.50;99.90;;;;;;5071064;28;20051;-76
2022/03/07 12:12:01;;;;;;;4.38;1.95;;;6.70;99.90;;;;;;5066413;28;20089;-76
2022/03/07 12:14:29;;;;;;;2.85;1.60;;;6.90;99.90;;;;;;5071446;28;20044;-73
2022/03/07 12:16:55;;;;;;;10.15;2.08;;;7.00;99.90;;;;;;5069511;28;20047;-76
2022/03/07 12:19:24;;;;;;;8.93;2.13;;;7.30;99.90;;;;;;5067304;28;20041;-76
2022/03/07 12:21:50;;;;;;;8.13;2.03;;;7.00;99.90;;;;;;5065934;28;20036;-76
2022/03/07 12:24:21;;;;;;;6.80;1.98;;;6.70;99.90;;;;;;5070310;28;20117;-75
2022/03/07 12:26:49;;;;;;;5.88;1.73;;;6.70;99.90;;;;;;5066122;28;20128;-76
2022/03/07 12:29:16;;;;;;;1.77;1.08;;;6.60;99.90;;;;;;5070396;28;20048;-75
2022/03/07 12:31:59;;;;;;;4.38;1.00;;;6.60;99.90;;;;;;5069263;28;20032;-77
2022/03/07 12:34:31;;;;;;;3.10;1.08;;;6.70;99.90;;;;;;5071086;28;20058;-76
2022/03/07 12:37:02;;;;;;;4.82;0.77;;;6.60;99.90;;;;;;5062891;28;20522;-77
2022/03/07 12:39:29;;;;;;;4.43;1.33;;;6.60;99.90;;;;;;5059554;28;20041;-76
2022/03/07 12:42:02;;;;;;;5.13;1.52;;;6.80;99.90;;;;;;5062572;28;20411;-76
2022/03/07 12:44:28;;;;;;;3.08;1.95;;;6.80;99.90;;;;;;5053330;28;20128;-75
2022/03/07 12:46:53;;;;;;;5.18;1.27;;;7.10;99.90;;;;;;5063446;28;20124;-77
2022/03/07 12:49:19;;;;;;;8.13;1.40;;;7.40;99.90;;;;;;5058955;28;20048;-74